sensor_id;sensor_type;location;lat;lon;timestamp;P1;P2;P0
56495;PMS5003;42804;55.762;38.084;2023-08-01T00:01:06;33.25;31.25;22.50
56495;PMS5003;42804;55.762;38.084;2023-08-01T00:03:34;33.00;32.50;22.25
56495;PMS5003;42804;55.762;38.084;2023-08-01T00:06:03;30.00;28.75;21.00
56495;PMS5003;42804;55.762;38.084;2023-08-01T00:08:31;29.25;29.25;21.25
56495;PMS5003;42804;55.762;38.084;2023-08-01T00:10:59;30.00;27.25;19.50
56495;PMS5003;42804;55.762;38.084;2023-08-01T00:13:29;31.50;29.00;21.50
56495;PMS5003;42804;55.762;38.084;2023-08-01T00:15:57;34.25;31.75;21.00
56495;PMS5003;42804;55.762;38.084;2023-08-01T00:18:33;26.00;26.00;22.25
56495;PMS5003;42804;55.762;38.084;2023-08-01T00:21:02;48.25;39.00;27.50
56495;PMS5003;42804;55.762;38.084;2023-08-01T00:23:32;36.00;33.00;24.25
56495;PMS5003;42804;55.762;38.084;2023-08-01T00:26:00;44.50;40.00;27.50
56495;PMS5003;42804;55.762;38.084;2023-08-01T00:28:30;69.00;55.40;36.00
56495;PMS5003;42804;55.762;38.084;2023-08-01T00:31:02;72.80;58.60;38.40
56495;PMS5003;42804;55.762;38.084;2023-08-01T00:33:31;61.20;49.60;32.00
56495;PMS5003;42804;55.762;38.084;2023-08-01T00:35:59;65.60;54.40;36.20
56495;PMS5003;42804;55.762;38.084;2023-08-01T00:38:27;69.00;55.20;36.00
56495;PMS5003;42804;55.762;38.084;2023-08-01T00:40:57;54.00;44.00;29.25
56495;PMS5003;42804;55.762;38.084;2023-08-01T00:43:26;40.75;36.00;24.50
56495;PMS5003;42804;55.762;38.084;2023-08-01T00:45:55;47.50;41.50;25.75
56495;PMS5003;42804;55.762;38.084;2023-08-01T00:48:27;44.25;40.00;26.50
56495;PMS5003;42804;55.762;38.084;2023-08-01T00:50:55;40.50;37.50;24.00
56495;PMS5003;42804;55.762;38.084;2023-08-01T00:53:24;38.00;35.25;23.75
56495;PMS5003;42804;55.762;38.084;2023-08-01T00:55:52;33.25;32.50;22.50
56495;PMS5003;42804;55.762;38.084;2023-08-01T00:58:22;34.75;33.00;23.00
56495;PMS5003;42804;55.762;38.084;2023-08-01T01:00:50;29.50;28.50;20.25
56495;PMS5003;42804;55.762;38.084;2023-08-01T01:03:21;31.75;29.25;22.00
56495;PMS5003;42804;55.762;38.084;2023-08-01T01:05:52;35.25;30.75;21.50
56495;PMS5003;42804;55.762;38.084;2023-08-01T01:08:21;32.00;28.00;19.75
56495;PMS5003;42804;55.762;38.084;2023-08-01T01:10:49;33.50;31.75;22.50
56495;PMS5003;42804;55.762;38.084;2023-08-01T01:13:17;31.50;30.00;20.25
56495;PMS5003;42804;55.762;38.084;2023-08-01T01:15:46;32.50;29.25;23.00
56495;PMS5003;42804;55.762;38.084;2023-08-01T01:18:14;36.50;33.00;22.75
56495;PMS5003;42804;55.762;38.084;2023-08-01T01:20:43;36.25;34.00;21.75
56495;PMS5003;42804;55.762;38.084;2023-08-01T01:23:12;32.75;31.75;22.00
56495;PMS5003;42804;55.762;38.084;2023-08-01T01:25:40;35.75;31.00;22.75
56495;PMS5003;42804;55.762;38.084;2023-08-01T01:28:09;31.75;30.25;20.50
56495;PMS5003;42804;55.762;38.084;2023-08-01T01:30:38;29.00;27.25;17.75
56495;PMS5003;42804;55.762;38.084;2023-08-01T01:33:06;32.50;30.75;21.75
56495;PMS5003;42804;55.762;38.084;2023-08-01T01:35:36;35.50;31.00;22.00
56495;PMS5003;42804;55.762;38.084;2023-08-01T01:38:05;29.75;27.25;21.75
56495;PMS5003;42804;55.762;38.084;2023-08-01T01:40:37;30.00;28.75;20.75
56495;PMS5003;42804;55.762;38.084;2023-08-01T01:43:05;31.75;28.25;19.50
56495;PMS5003;42804;55.762;38.084;2023-08-01T01:45:33;33.25;31.50;22.25
56495;PMS5003;42804;55.762;38.084;2023-08-01T01:48:02;35.50;31.75;22.25
56495;PMS5003;42804;55.762;38.084;2023-08-01T01:50:30;35.75;33.25;21.00
56495;PMS5003;42804;55.762;38.084;2023-08-01T01:52:58;32.25;30.50;21.50
56495;PMS5003;42804;55.762;38.084;2023-08-01T01:55:28;21.50;18.75;15.00
56495;PMS5003;42804;55.762;38.084;2023-08-01T01:58:00;29.25;27.25;20.75
56495;PMS5003;42804;55.762;38.084;2023-08-01T02:00:28;32.50;29.25;21.25
56495;PMS5003;42804;55.762;38.084;2023-08-01T02:02:56;33.25;30.00;21.75
56495;PMS5003;42804;55.762;38.084;2023-08-01T02:05:24;29.00;28.00;20.75
56495;PMS5003;42804;55.762;38.084;2023-08-01T02:07:53;32.25;28.50;21.00
56495;PMS5003;42804;55.762;38.084;2023-08-01T02:10:21;32.75;27.00;19.25
56495;PMS5003;42804;55.762;38.084;2023-08-01T02:12:51;30.75;29.50;21.00
56495;PMS5003;42804;55.762;38.084;2023-08-01T02:15:19;25.75;24.25;17.00
56495;PMS5003;42804;55.762;38.084;2023-08-01T02:17:47;25.50;24.50;19.75
56495;PMS5003;42804;55.762;38.084;2023-08-01T02:20:35;27.00;25.25;17.25
56495;PMS5003;42804;55.762;38.084;2023-08-01T02:23:04;29.25;27.00;19.00
56495;PMS5003;42804;55.762;38.084;2023-08-01T02:25:33;28.75;28.75;20.00
56495;PMS5003;42804;55.762;38.084;2023-08-01T02:28:07;28.75;27.25;20.50
56495;PMS5003;42804;55.762;38.084;2023-08-01T02:30:36;23.25;20.75;16.00
56495;PMS5003;42804;55.762;38.084;2023-08-01T02:33:04;24.50;24.25;17.25
56495;PMS5003;42804;55.762;38.084;2023-08-01T02:35:32;27.50;27.50;19.25
56495;PMS5003;42804;55.762;38.084;2023-08-01T02:38:00;23.00;23.00;17.00
56495;PMS5003;42804;55.762;38.084;2023-08-01T02:40:29;25.50;22.00;17.75
56495;PMS5003;42804;55.762;38.084;2023-08-01T02:42:58;28.00;25.50;19.00
56495;PMS5003;42804;55.762;38.084;2023-08-01T02:45:27;27.50;26.00;17.25
56495;PMS5003;42804;55.762;38.084;2023-08-01T02:47:55;25.75;24.00;18.00
56495;PMS5003;42804;55.762;38.084;2023-08-01T02:50:25;22.25;20.00;14.00
56495;PMS5003;42804;55.762;38.084;2023-08-01T02:52:53;23.25;22.25;16.25
56495;PMS5003;42804;55.762;38.084;2023-08-01T02:55:21;28.25;25.25;18.00
56495;PMS5003;42804;55.762;38.084;2023-08-01T02:57:49;23.25;23.25;16.50
56495;PMS5003;42804;55.762;38.084;2023-08-01T03:00:18;26.75;24.75;18.50
56495;PMS5003;42804;55.762;38.084;2023-08-01T03:02:47;26.00;24.50;18.75
56495;PMS5003;42804;55.762;38.084;2023-08-01T03:05:16;23.25;22.25;17.25
56495;PMS5003;42804;55.762;38.084;2023-08-01T03:07:44;26.50;25.50;19.00
56495;PMS5003;42804;55.762;38.084;2023-08-01T03:10:12;25.75;24.25;17.50
56495;PMS5003;42804;55.762;38.084;2023-08-01T03:13:00;24.75;23.75;19.50
56495;PMS5003;42804;55.762;38.084;2023-08-01T03:15:28;25.50;24.25;17.75
56495;PMS5003;42804;55.762;38.084;2023-08-01T03:17:58;22.75;22.00;17.50
56495;PMS5003;42804;55.762;38.084;2023-08-01T03:20:27;27.00;25.00;17.50
56495;PMS5003;42804;55.762;38.084;2023-08-01T03:22:55;26.00;24.50;18.25
56495;PMS5003;42804;55.762;38.084;2023-08-01T03:25:24;24.00;22.25;17.75
56495;PMS5003;42804;55.762;38.084;2023-08-01T03:27:52;26.75;24.50;18.75
56495;PMS5003;42804;55.762;38.084;2023-08-01T03:30:21;24.25;22.00;16.00
56495;PMS5003;42804;55.762;38.084;2023-08-01T03:32:49;22.75;21.50;16.75
56495;PMS5003;42804;55.762;38.084;2023-08-01T03:35:19;28.00;26.00;18.25
56495;PMS5003;42804;55.762;38.084;2023-08-01T03:37:47;30.25;24.00;19.50
56495;PMS5003;42804;55.762;38.084;2023-08-01T03:40:15;27.75;26.25;19.00
56495;PMS5003;42804;55.762;38.084;2023-08-01T03:42:44;27.00;25.75;20.00
56495;PMS5003;42804;55.762;38.084;2023-08-01T03:45:13;24.25;22.75;19.00
56495;PMS5003;42804;55.762;38.084;2023-08-01T03:47:41;27.50;26.50;19.50
56495;PMS5003;42804;55.762;38.084;2023-08-01T03:50:09;30.25;28.50;20.50
56495;PMS5003;42804;55.762;38.084;2023-08-01T03:52:40;27.50;26.75;19.25
56495;PMS5003;42804;55.762;38.084;2023-08-01T03:55:08;27.50;26.50;20.25
56495;PMS5003;42804;55.762;38.084;2023-08-01T03:57:36;24.75;23.75;19.50
56495;PMS5003;42804;55.762;38.084;2023-08-01T04:00:05;28.25;27.50;18.50
56495;PMS5003;42804;55.762;38.084;2023-08-01T04:02:40;28.00;28.00;20.00
56495;PMS5003;42804;55.762;38.084;2023-08-01T04:05:13;27.00;26.25;17.75
56495;PMS5003;42804;55.762;38.084;2023-08-01T04:07:43;29.75;27.50;21.00
56495;PMS5003;42804;55.762;38.084;2023-08-01T04:10:11;24.50;23.25;18.50
56495;PMS5003;42804;55.762;38.084;2023-08-01T04:12:40;27.50;25.00;19.00
56495;PMS5003;42804;55.762;38.084;2023-08-01T04:15:09;30.25;28.75;21.25
56495;PMS5003;42804;55.762;38.084;2023-08-01T04:17:38;26.75;26.00;18.50
56495;PMS5003;42804;55.762;38.084;2023-08-01T04:20:06;32.00;29.50;20.25
56495;PMS5003;42804;55.762;38.084;2023-08-01T04:22:34;29.25;27.50;20.00
56495;PMS5003;42804;55.762;38.084;2023-08-01T04:25:04;30.50;28.75;20.50
56495;PMS5003;42804;55.762;38.084;2023-08-01T04:27:33;35.75;33.00;23.00
56495;PMS5003;42804;55.762;38.084;2023-08-01T04:30:02;32.75;31.00;22.00
56495;PMS5003;42804;55.762;38.084;2023-08-01T04:32:34;33.25;30.00;21.00
56495;PMS5003;42804;55.762;38.084;2023-08-01T04:35:03;34.00;30.50;21.00
56495;PMS5003;42804;55.762;38.084;2023-08-01T04:37:33;27.50;27.25;20.50
56495;PMS5003;42804;55.762;38.084;2023-08-01T04:40:02;33.50;30.50;22.00
56495;PMS5003;42804;55.762;38.084;2023-08-01T04:42:34;34.50;31.50;22.25
56495;PMS5003;42804;55.762;38.084;2023-08-01T04:45:02;37.50;33.00;23.00
56495;PMS5003;42804;55.762;38.084;2023-08-01T04:47:32;28.50;27.00;21.00
56495;PMS5003;42804;55.762;38.084;2023-08-01T04:50:00;34.00;30.75;22.75
56495;PMS5003;42804;55.762;38.084;2023-08-01T04:52:29;32.75;31.25;21.00
56495;PMS5003;42804;55.762;38.084;2023-08-01T04:54:57;30.75;28.75;20.50
56495;PMS5003;42804;55.762;38.084;2023-08-01T04:57:25;36.50;33.00;22.50
56495;PMS5003;42804;55.762;38.084;2023-08-01T04:59:55;33.75;30.25;21.00
56495;PMS5003;42804;55.762;38.084;2023-08-01T05:02:23;29.00;28.25;21.00
56495;PMS5003;42804;55.762;38.084;2023-08-01T05:04:52;30.00;28.75;21.00
56495;PMS5003;42804;55.762;38.084;2023-08-01T05:07:20;31.00;28.25;20.25
56495;PMS5003;42804;55.762;38.084;2023-08-01T05:09:48;24.75;23.75;18.50
56495;PMS5003;42804;55.762;38.084;2023-08-01T05:12:16;28.25;27.00;20.00
56495;PMS5003;42804;55.762;38.084;2023-08-01T05:14:44;26.25;26.25;19.50
56495;PMS5003;42804;55.762;38.084;2023-08-01T05:17:14;26.00;24.25;18.25
56495;PMS5003;42804;55.762;38.084;2023-08-01T05:19:42;25.25;25.00;19.75
56495;PMS5003;42804;55.762;38.084;2023-08-01T05:22:11;25.50;25.00;18.50
56495;PMS5003;42804;55.762;38.084;2023-08-01T05:24:39;21.75;20.75;17.00
56495;PMS5003;42804;55.762;38.084;2023-08-01T05:27:07;21.75;21.50;16.75
56495;PMS5003;42804;55.762;38.084;2023-08-01T05:29:35;20.50;20.50;15.25
56495;PMS5003;42804;55.762;38.084;2023-08-01T05:32:04;17.25;17.00;13.75
56495;PMS5003;42804;55.762;38.084;2023-08-01T05:34:34;17.00;16.25;14.00
56495;PMS5003;42804;55.762;38.084;2023-08-01T05:37:02;21.25;20.50;15.00
56495;PMS5003;42804;55.762;38.084;2023-08-01T05:39:30;19.00;18.50;14.50
56495;PMS5003;42804;55.762;38.084;2023-08-01T05:41:58;19.25;19.00;14.25
56495;PMS5003;42804;55.762;38.084;2023-08-01T05:44:26;19.25;18.00;13.00
56495;PMS5003;42804;55.762;38.084;2023-08-01T05:46:55;19.50;17.50;12.00
56495;PMS5003;42804;55.762;38.084;2023-08-01T05:49:24;18.00;17.00;13.75
56495;PMS5003;42804;55.762;38.084;2023-08-01T05:51:54;17.25;17.25;12.50
56495;PMS5003;42804;55.762;38.084;2023-08-01T05:54:22;18.50;18.25;13.50
56495;PMS5003;42804;55.762;38.084;2023-08-01T05:56:50;16.25;16.00;12.75
56495;PMS5003;42804;55.762;38.084;2023-08-01T05:59:19;14.00;13.50;10.00
56495;PMS5003;42804;55.762;38.084;2023-08-01T06:01:47;14.00;14.00;11.00
56495;PMS5003;42804;55.762;38.084;2023-08-01T06:04:15;10.00;10.00;7.00
56495;PMS5003;42804;55.762;38.084;2023-08-01T06:06:44;13.00;12.00;9.25
56495;PMS5003;42804;55.762;38.084;2023-08-01T06:09:13;14.75;13.25;10.00
56495;PMS5003;42804;55.762;38.084;2023-08-01T06:11:42;13.50;13.25;10.00
56495;PMS5003;42804;55.762;38.084;2023-08-01T06:14:11;13.25;12.75;9.50
56495;PMS5003;42804;55.762;38.084;2023-08-01T06:16:39;14.75;14.25;10.50
56495;PMS5003;42804;55.762;38.084;2023-08-01T06:19:08;14.25;13.25;12.00
56495;PMS5003;42804;55.762;38.084;2023-08-01T06:21:36;16.25;15.50;13.00
56495;PMS5003;42804;55.762;38.084;2023-08-01T06:24:05;16.00;15.25;11.00
56495;PMS5003;42804;55.762;38.084;2023-08-01T06:26:36;17.50;16.00;11.50
56495;PMS5003;42804;55.762;38.084;2023-08-01T06:29:04;14.00;13.50;10.00
56495;PMS5003;42804;55.762;38.084;2023-08-01T06:31:33;10.00;10.00;8.00
56495;PMS5003;42804;55.762;38.084;2023-08-01T06:34:01;9.50;9.25;5.75
56495;PMS5003;42804;55.762;38.084;2023-08-01T06:36:29;13.50;13.50;11.00
56495;PMS5003;42804;55.762;38.084;2023-08-01T06:38:59;14.00;12.75;11.00
56495;PMS5003;42804;55.762;38.084;2023-08-01T06:41:27;12.00;12.00;9.20
56495;PMS5003;42804;55.762;38.084;2023-08-01T06:43:57;12.00;12.00;9.00
56495;PMS5003;42804;55.762;38.084;2023-08-01T06:46:25;10.00;10.00;8.25
56495;PMS5003;42804;55.762;38.084;2023-08-01T06:48:53;14.75;13.75;10.50
56495;PMS5003;42804;55.762;38.084;2023-08-01T06:51:22;12.25;12.25;9.25
56495;PMS5003;42804;55.762;38.084;2023-08-01T06:53:50;15.00;14.50;11.25
56495;PMS5003;42804;55.762;38.084;2023-08-01T06:56:18;14.25;14.25;11.50
56495;PMS5003;42804;55.762;38.084;2023-08-01T06:58:47;14.00;12.75;9.75
56495;PMS5003;42804;55.762;38.084;2023-08-01T07:01:17;14.25;13.00;10.25
56495;PMS5003;42804;55.762;38.084;2023-08-01T07:03:46;14.00;13.75;10.00
56495;PMS5003;42804;55.762;38.084;2023-08-01T07:06:14;11.75;11.75;9.25
56495;PMS5003;42804;55.762;38.084;2023-08-01T07:08:42;13.00;13.00;9.75
56495;PMS5003;42804;55.762;38.084;2023-08-01T07:11:11;11.00;11.00;8.75
56495;PMS5003;42804;55.762;38.084;2023-08-01T07:13:39;9.50;9.25;7.25
56495;PMS5003;42804;55.762;38.084;2023-08-01T07:16:07;13.50;12.75;10.00
56495;PMS5003;42804;55.762;38.084;2023-08-01T07:18:37;12.60;11.80;9.20
56495;PMS5003;42804;55.762;38.084;2023-08-01T07:21:06;13.00;13.00;9.00
56495;PMS5003;42804;55.762;38.084;2023-08-01T07:23:34;12.50;12.50;10.00
56495;PMS5003;42804;55.762;38.084;2023-08-01T07:26:03;12.25;11.25;9.00
56495;PMS5003;42804;55.762;38.084;2023-08-01T07:28:31;12.40;11.00;9.00
56495;PMS5003;42804;55.762;38.084;2023-08-01T07:31:00;13.00;12.00;9.00
56495;PMS5003;42804;55.762;38.084;2023-08-01T07:33:28;11.50;11.00;8.00
56495;PMS5003;42804;55.762;38.084;2023-08-01T07:35:58;11.00;11.00;8.50
56495;PMS5003;42804;55.762;38.084;2023-08-01T07:38:26;9.50;9.50;8.00
56495;PMS5003;42804;55.762;38.084;2023-08-01T07:40:55;11.00;11.00;7.50
56495;PMS5003;42804;55.762;38.084;2023-08-01T07:43:25;10.25;9.50;7.25
56495;PMS5003;42804;55.762;38.084;2023-08-01T07:45:55;12.00;12.00;9.25
56495;PMS5003;42804;55.762;38.084;2023-08-01T07:48:23;11.00;10.75;8.75
56495;PMS5003;42804;55.762;38.084;2023-08-01T07:50:52;11.25;10.25;8.25
56495;PMS5003;42804;55.762;38.084;2023-08-01T07:53:22;9.50;9.50;8.25
56495;PMS5003;42804;55.762;38.084;2023-08-01T07:55:51;8.75;8.75;8.25
56495;PMS5003;42804;55.762;38.084;2023-08-01T07:58:19;9.25;9.25;7.00
56495;PMS5003;42804;55.762;38.084;2023-08-01T08:00:47;10.25;10.25;8.00
56495;PMS5003;42804;55.762;38.084;2023-08-01T08:03:16;9.50;9.00;7.00
56495;PMS5003;42804;55.762;38.084;2023-08-01T08:05:45;10.00;10.00;7.20
56495;PMS5003;42804;55.762;38.084;2023-08-01T08:08:14;10.50;10.50;8.00
56495;PMS5003;42804;55.762;38.084;2023-08-01T08:10:43;11.00;10.25;8.25
56495;PMS5003;42804;55.762;38.084;2023-08-01T08:13:12;12.50;11.25;9.00
56495;PMS5003;42804;55.762;38.084;2023-08-01T08:15:40;10.50;9.50;7.00
56495;PMS5003;42804;55.762;38.084;2023-08-01T08:18:08;11.50;10.75;7.75
56495;PMS5003;42804;55.762;38.084;2023-08-01T08:20:40;8.75;8.75;7.00
56495;PMS5003;42804;55.762;38.084;2023-08-01T08:23:09;12.50;11.00;8.00
56495;PMS5003;42804;55.762;38.084;2023-08-01T08:25:37;9.75;9.75;8.25
56495;PMS5003;42804;55.762;38.084;2023-08-01T08:28:07;10.00;9.00;7.00
56495;PMS5003;42804;55.762;38.084;2023-08-01T08:30:35;9.25;9.25;7.25
56495;PMS5003;42804;55.762;38.084;2023-08-01T08:33:03;8.00;8.00;6.50
56495;PMS5003;42804;55.762;38.084;2023-08-01T08:35:35;10.00;9.25;7.25
56495;PMS5003;42804;55.762;38.084;2023-08-01T08:38:03;9.25;9.00;6.00
56495;PMS5003;42804;55.762;38.084;2023-08-01T08:40:32;9.50;9.25;6.75
56495;PMS5003;42804;55.762;38.084;2023-08-01T08:43:01;10.00;10.00;8.75
56495;PMS5003;42804;55.762;38.084;2023-08-01T08:45:33;8.50;8.50;6.50
56495;PMS5003;42804;55.762;38.084;2023-08-01T08:48:03;10.50;10.50;8.00
56495;PMS5003;42804;55.762;38.084;2023-08-01T08:50:34;9.25;9.25;7.00
56495;PMS5003;42804;55.762;38.084;2023-08-01T08:53:03;6.00;5.80;5.40
56495;PMS5003;42804;55.762;38.084;2023-08-01T08:55:32;9.50;9.50;7.50
56495;PMS5003;42804;55.762;38.084;2023-08-01T08:58:00;12.00;10.25;8.25
56495;PMS5003;42804;55.762;38.084;2023-08-01T09:00:29;10.50;10.00;8.00
56495;PMS5003;42804;55.762;38.084;2023-08-01T09:02:59;8.75;8.50;7.00
56495;PMS5003;42804;55.762;38.084;2023-08-01T09:05:27;8.25;8.25;7.00
56495;PMS5003;42804;55.762;38.084;2023-08-01T09:08:00;9.00;8.25;7.25
56495;PMS5003;42804;55.762;38.084;2023-08-01T09:10:30;8.00;7.25;6.75
56495;PMS5003;42804;55.762;38.084;2023-08-01T09:12:59;9.25;9.00;6.25
56495;PMS5003;42804;55.762;38.084;2023-08-01T09:15:28;11.25;10.75;8.75
56495;PMS5003;42804;55.762;38.084;2023-08-01T09:17:57;10.00;10.00;9.00
56495;PMS5003;42804;55.762;38.084;2023-08-01T09:20:29;10.25;10.00;7.75
56495;PMS5003;42804;55.762;38.084;2023-08-01T09:23:00;8.00;8.00;7.00
56495;PMS5003;42804;55.762;38.084;2023-08-01T09:25:31;8.75;8.75;7.00
56495;PMS5003;42804;55.762;38.084;2023-08-01T09:28:00;12.00;12.00;9.75
56495;PMS5003;42804;55.762;38.084;2023-08-01T09:30:28;12.25;12.25;9.25
56495;PMS5003;42804;55.762;38.084;2023-08-01T09:32:58;11.00;10.50;8.00
56495;PMS5003;42804;55.762;38.084;2023-08-01T09:35:26;10.00;10.00;8.00
56495;PMS5003;42804;55.762;38.084;2023-08-01T09:37:56;7.60;7.60;7.40
56495;PMS5003;42804;55.762;38.084;2023-08-01T09:40:35;8.25;8.25;6.00
56495;PMS5003;42804;55.762;38.084;2023-08-01T09:43:04;11.25;11.25;10.25
56495;PMS5003;42804;55.762;38.084;2023-08-01T09:45:32;13.50;13.25;10.00
56495;PMS5003;42804;55.762;38.084;2023-08-01T09:48:01;11.80;11.60;9.00
56495;PMS5003;42804;55.762;38.084;2023-08-01T10:00:40;13.75;13.75;9.75
56495;PMS5003;42804;55.762;38.084;2023-08-01T10:06:17;13.50;13.00;9.00
56495;PMS5003;42804;55.762;38.084;2023-08-01T10:09:03;9.00;8.25;6.50
56495;PMS5003;42804;55.762;38.084;2023-08-01T10:11:33;12.75;12.00;10.00
56495;PMS5003;42804;55.762;38.084;2023-08-01T10:14:02;12.50;11.00;9.00
56495;PMS5003;42804;55.762;38.084;2023-08-01T10:16:32;16.50;13.50;10.50
56495;PMS5003;42804;55.762;38.084;2023-08-01T10:19:01;13.75;13.75;9.75
56495;PMS5003;42804;55.762;38.084;2023-08-01T10:21:32;13.00;13.00;10.00
56495;PMS5003;42804;55.762;38.084;2023-08-01T10:24:00;10.75;10.50;8.00
56495;PMS5003;42804;55.762;38.084;2023-08-01T10:26:30;13.50;13.50;11.25
56495;PMS5003;42804;55.762;38.084;2023-08-01T10:29:00;14.75;14.25;10.50
56495;PMS5003;42804;55.762;38.084;2023-08-01T10:31:29;15.50;14.75;11.00
56495;PMS5003;42804;55.762;38.084;2023-08-01T10:34:12;12.25;12.25;9.00
56495;PMS5003;42804;55.762;38.084;2023-08-01T10:36:41;14.00;14.00;10.50
56495;PMS5003;42804;55.762;38.084;2023-08-01T10:39:21;14.50;14.00;11.50
56495;PMS5003;42804;55.762;38.084;2023-08-01T10:41:56;12.50;9.75;8.00
56495;PMS5003;42804;55.762;38.084;2023-08-01T10:44:25;12.25;12.25;10.00
56495;PMS5003;42804;55.762;38.084;2023-08-01T10:46:53;12.50;12.50;9.00
56495;PMS5003;42804;55.762;38.084;2023-08-01T10:49:34;14.25;13.50;11.00
56495;PMS5003;42804;55.762;38.084;2023-08-01T10:52:08;13.75;12.25;9.50
56495;PMS5003;42804;55.762;38.084;2023-08-01T10:54:43;15.75;14.00;10.75
56495;PMS5003;42804;55.762;38.084;2023-08-01T10:57:15;16.75;16.25;13.25
56495;PMS5003;42804;55.762;38.084;2023-08-01T10:59:43;14.00;13.25;11.50
56495;PMS5003;42804;55.762;38.084;2023-08-01T11:02:11;17.00;15.00;10.50
56495;PMS5003;42804;55.762;38.084;2023-08-01T11:04:41;16.00;15.25;13.50
56495;PMS5003;42804;55.762;38.084;2023-08-01T11:07:11;14.00;14.00;11.00
56495;PMS5003;42804;55.762;38.084;2023-08-01T11:09:39;15.00;14.75;10.75
56495;PMS5003;42804;55.762;38.084;2023-08-01T11:12:07;13.00;13.00;10.00
56495;PMS5003;42804;55.762;38.084;2023-08-01T11:14:36;11.50;11.50;9.25
56495;PMS5003;42804;55.762;38.084;2023-08-01T11:17:05;14.25;14.25;11.00
56495;PMS5003;42804;55.762;38.084;2023-08-01T11:19:33;13.50;13.25;10.25
56495;PMS5003;42804;55.762;38.084;2023-08-01T11:22:08;11.75;11.75;8.50
56495;PMS5003;42804;55.762;38.084;2023-08-01T11:24:37;13.50;12.75;10.50
56495;PMS5003;42804;55.762;38.084;2023-08-01T11:27:05;14.50;14.00;12.00
56495;PMS5003;42804;55.762;38.084;2023-08-01T11:29:37;12.50;12.25;9.00
56495;PMS5003;42804;55.762;38.084;2023-08-01T11:32:07;13.00;12.00;10.00
56495;PMS5003;42804;55.762;38.084;2023-08-01T11:34:39;11.40;11.20;9.60
56495;PMS5003;42804;55.762;38.084;2023-08-01T11:37:11;12.00;12.00;9.25
56495;PMS5003;42804;55.762;38.084;2023-08-01T11:39:40;13.25;13.00;11.00
56495;PMS5003;42804;55.762;38.084;2023-08-01T11:42:13;11.75;11.75;8.75
56495;PMS5003;42804;55.762;38.084;2023-08-01T11:44:41;11.50;11.50;9.50
56495;PMS5003;42804;55.762;38.084;2023-08-01T11:47:12;12.25;12.00;9.25
56495;PMS5003;42804;55.762;38.084;2023-08-01T11:49:45;13.00;12.50;9.50
56495;PMS5003;42804;55.762;38.084;2023-08-01T11:52:24;13.50;13.50;10.25
56495;PMS5003;42804;55.762;38.084;2023-08-01T11:54:53;10.50;10.00;9.00
56495;PMS5003;42804;55.762;38.084;2023-08-01T11:57:21;13.50;13.50;10.25
56495;PMS5003;42804;55.762;38.084;2023-08-01T11:59:50;12.00;12.00;9.00
56495;PMS5003;42804;55.762;38.084;2023-08-01T12:02:22;12.40;11.20;8.60
56495;PMS5003;42804;55.762;38.084;2023-08-01T12:04:51;13.25;13.25;10.00
56495;PMS5003;42804;55.762;38.084;2023-08-01T12:07:20;11.75;11.75;9.25
56495;PMS5003;42804;55.762;38.084;2023-08-01T12:09:56;13.00;12.50;9.00
56495;PMS5003;42804;55.762;38.084;2023-08-01T12:12:26;12.75;12.25;9.00
56495;PMS5003;42804;55.762;38.084;2023-08-01T12:14:54;10.75;10.75;8.75
56495;PMS5003;42804;55.762;38.084;2023-08-01T12:17:22;14.00;13.60;10.00
56495;PMS5003;42804;55.762;38.084;2023-08-01T12:19:51;12.50;12.50;9.25
56495;PMS5003;42804;55.762;38.084;2023-08-01T12:22:19;10.60;10.60;9.00
56495;PMS5003;42804;55.762;38.084;2023-08-01T12:24:47;12.75;12.50;9.50
56495;PMS5003;42804;55.762;38.084;2023-08-01T12:27:17;12.75;12.75;9.75
56495;PMS5003;42804;55.762;38.084;2023-08-01T12:29:45;13.75;12.25;9.25
56495;PMS5003;42804;55.762;38.084;2023-08-01T12:32:14;14.25;13.75;9.50
56495;PMS5003;42804;55.762;38.084;2023-08-01T12:34:42;12.50;11.50;10.00
56495;PMS5003;42804;55.762;38.084;2023-08-01T12:37:10;10.25;10.25;8.00
56495;PMS5003;42804;55.762;38.084;2023-08-01T12:39:39;15.00;14.75;12.00
56495;PMS5003;42804;55.762;38.084;2023-08-01T12:42:07;12.00;11.75;8.50
56495;PMS5003;42804;55.762;38.084;2023-08-01T12:44:37;10.75;10.75;7.75
56495;PMS5003;42804;55.762;38.084;2023-08-01T12:47:05;10.75;10.75;9.00
56495;PMS5003;42804;55.762;38.084;2023-08-01T12:49:38;12.75;12.25;10.25
56495;PMS5003;42804;55.762;38.084;2023-08-01T12:52:06;13.00;12.50;8.00
56495;PMS5003;42804;55.762;38.084;2023-08-01T12:54:35;10.00;10.00;8.00
56495;PMS5003;42804;55.762;38.084;2023-08-01T12:57:03;9.75;9.75;6.75
56495;PMS5003;42804;55.762;38.084;2023-08-01T12:59:32;11.25;11.25;9.00
56495;PMS5003;42804;55.762;38.084;2023-08-01T13:02:01;13.00;12.50;9.25
56495;PMS5003;42804;55.762;38.084;2023-08-01T13:04:35;10.50;9.75;7.00
56495;PMS5003;42804;55.762;38.084;2023-08-01T13:07:04;11.75;11.75;9.00
56495;PMS5003;42804;55.762;38.084;2023-08-01T13:09:32;9.75;9.25;6.50
56495;PMS5003;42804;55.762;38.084;2023-08-01T13:12:00;11.00;10.25;7.25
56495;PMS5003;42804;55.762;38.084;2023-08-01T13:14:31;10.75;10.25;7.50
56495;PMS5003;42804;55.762;38.084;2023-08-01T13:16:59;7.25;7.25;5.25
56495;PMS5003;42804;55.762;38.084;2023-08-01T13:19:29;11.00;11.00;9.00
56495;PMS5003;42804;55.762;38.084;2023-08-01T13:21:58;9.75;9.25;7.50
56495;PMS5003;42804;55.762;38.084;2023-08-01T13:24:26;10.50;9.75;7.00
56495;PMS5003;42804;55.762;38.084;2023-08-01T13:26:54;11.00;10.00;7.75
56495;PMS5003;42804;55.762;38.084;2023-08-01T13:29:22;5.50;5.50;4.00
56495;PMS5003;42804;55.762;38.084;2023-08-01T13:31:50;8.50;8.00;6.00
56495;PMS5003;42804;55.762;38.084;2023-08-01T13:34:19;10.50;10.50;7.50
56495;PMS5003;42804;55.762;38.084;2023-08-01T13:36:48;10.50;10.50;8.00
56495;PMS5003;42804;55.762;38.084;2023-08-01T13:39:17;9.50;9.50;7.00
56495;PMS5003;42804;55.762;38.084;2023-08-01T13:41:45;8.75;8.75;5.75
56495;PMS5003;42804;55.762;38.084;2023-08-01T13:44:13;8.00;7.75;6.00
56495;PMS5003;42804;55.762;38.084;2023-08-01T13:46:41;10.75;10.50;8.00
56495;PMS5003;42804;55.762;38.084;2023-08-01T13:49:10;11.75;11.25;8.00
56495;PMS5003;42804;55.762;38.084;2023-08-01T13:51:39;7.50;7.50;6.00
56495;PMS5003;42804;55.762;38.084;2023-08-01T13:54:09;9.75;9.75;7.00
56495;PMS5003;42804;55.762;38.084;2023-08-01T13:56:37;6.75;6.00;4.75
56495;PMS5003;42804;55.762;38.084;2023-08-01T13:59:06;8.75;8.00;5.75
56495;PMS5003;42804;55.762;38.084;2023-08-01T14:01:35;8.25;8.00;6.00
56495;PMS5003;42804;55.762;38.084;2023-08-01T14:04:05;8.00;7.00;5.25
56495;PMS5003;42804;55.762;38.084;2023-08-01T14:06:33;7.25;7.25;6.00